Time;durP1;ratioP1;P1;durP2;ratioP2;P2;SDS_P1;SDS_P2;PMS_P1;PMS_P2;Temp;Humidity;BMP_temperature;BMP_pressure;BME280_temperature;BME280_humidity;BME280_pressure;Samples;Min_cycle;Max_cycle;Signal;HPM_P1;HPM_P2
2022/05/10 00:01:32;;;;;;;18.00;7.20;;;12.80;99.90;;;;;;5104431;28;20099;-74
2022/05/10 00:04:00;;;;;;;18.17;7.43;;;12.80;99.90;;;;;;5105989;28;20035;-76
2022/05/10 00:06:35;;;;;;;18.15;7.40;;;12.70;99.90;;;;;;5097803;28;20052;-76
2022/05/10 00:09:00;;;;;;;21.23;7.47;;;12.80;99.90;;;;;;5076772;28;20138;-76
2022/05/10 00:11:26;;;;;;;23.98;8.25;;;12.70;99.90;;;;;;5092759;28;20138;-76
2022/05/10 00:13:52;;;;;;;19.00;8.15;;;12.70;99.90;;;;;;5100056;28;20039;-76
2022/05/10 00:16:18;;;;;;;19.15;8.02;;;12.70;99.90;;;;;;5096028;28;20054;-75
2022/05/10 00:18:45;;;;;;;21.65;7.75;;;12.60;99.90;;;;;;5094581;28;20047;-76
2022/05/10 00:21:15;;;;;;;19.40;8.27;;;12.70;99.90;;;;;;5095074;28;20154;-75
2022/05/10 00:23:40;;;;;;;17.73;8.43;;;12.60;99.90;;;;;;5095705;28;20043;-76
2022/05/10 00:26:06;;;;;;;22.45;8.57;;;12.60;99.90;;;;;;5076106;28;20051;-76
2022/05/10 00:28:36;;;;;;;17.25;7.95;;;12.60;99.90;;;;;;5080760;28;20055;-75
2022/05/10 00:31:01;;;;;;;23.17;7.85;;;12.60;99.90;;;;;;5087422;28;20044;-75
2022/05/10 00:33:29;;;;;;;24.40;7.78;;;12.60;99.90;;;;;;5075970;28;20066;-75
2022/05/10 00:35:56;;;;;;;17.27;7.90;;;12.60;99.90;;;;;;5067093;28;20039;-75
2022/05/10 00:38:33;;;;;;;20.33;7.28;;;12.60;99.90;;;;;;5085257;28;20380;-75
2022/05/10 00:41:11;;;;;;;18.65;7.60;;;12.50;99.90;;;;;;5076953;28;20048;-75
2022/05/10 00:43:40;;;;;;;19.58;7.70;;;12.60;99.90;;;;;;5081477;28;20061;-75
2022/05/10 00:46:30;;;;;;;16.45;7.25;;;12.70;99.90;;;;;;5093240;28;20032;-75
2022/05/10 00:49:09;;;;;;;17.50;7.13;;;12.70;99.90;;;;;;5079532;28;20134;-75
2022/05/10 00:51:40;;;;;;;18.67;7.03;;;12.70;99.90;;;;;;5074263;28;20089;-75
2022/05/10 00:54:17;;;;;;;16.35;7.07;;;12.60;99.90;;;;;;5078843;28;20052;-75
2022/05/10 00:57:10;;;;;;;24.85;7.35;;;12.60;99.90;;;;;;5093594;28;20453;-75
2022/05/10 00:59:45;;;;;;;25.02;7.70;;;12.60;99.90;;;;;;5091859;28;20109;-75
2022/05/10 01:02:38;;;;;;;17.60;6.90;;;12.60;99.90;;;;;;5095726;28;20031;-75
2022/05/10 01:05:38;;;;;;;15.82;6.85;;;12.60;99.90;;;;;;5093498;28;20040;-76
2022/05/10 01:08:23;;;;;;;19.05;7.25;;;12.60;99.90;;;;;;5093716;28;20047;-75
2022/05/10 01:11:19;;;;;;;14.15;7.10;;;12.60;99.90;;;;;;5092993;28;20051;-75
2022/05/10 01:14:06;;;;;;;17.13;6.80;;;12.50;99.90;;;;;;5091031;28;20055;-76
2022/05/10 01:16:32;;;;;;;22.77;7.38;;;12.60;99.90;;;;;;5103104;28;20036;-76
2022/05/10 01:18:58;;;;;;;16.70;7.25;;;12.50;99.90;;;;;;5098302;28;20039;-76
2022/05/10 01:21:30;;;;;;;16.50;6.55;;;12.60;99.90;;;;;;5069555;28;20047;-76
2022/05/10 01:24:13;;;;;;;15.48;7.07;;;12.50;99.90;;;;;;5084199;28;20099;-76
2022/05/10 01:26:55;;;;;;;17.35;7.00;;;12.50;99.90;;;;;;5086744;28;20035;-74
2022/05/10 01:29:38;;;;;;;18.30;7.10;;;12.50;99.90;;;;;;5098494;28;20044;-76
2022/05/10 01:34:59;;;;;;;17.42;6.85;;;12.50;99.90;;;;;;5096448;28;20039;-76
2022/05/10 01:37:31;;;;;;;20.33;7.07;;;12.50;99.90;;;;;;5071419;28;20028;-75
2022/05/10 01:40:09;;;;;;;19.05;6.85;;;12.50;99.90;;;;;;5080247;28;20416;-76
2022/05/10 01:42:45;;;;;;;16.02;7.55;;;12.60;99.90;;;;;;5109845;27;20044;-76
2022/05/10 01:45:21;;;;;;;16.23;7.07;;;12.60;99.90;;;;;;5088863;28;20130;-76
2022/05/10 01:47:59;;;;;;;14.73;6.75;;;12.60;99.90;;;;;;5078297;28;20497;-76
2022/05/10 01:50:43;;;;;;;17.27;6.47;;;12.70;99.90;;;;;;5095715;28;20395;-76
2022/05/10 01:53:19;;;;;;;16.47;7.10;;;12.60;99.90;;;;;;5092121;28;20052;-77
2022/05/10 01:55:47;;;;;;;14.32;6.65;;;12.60;99.90;;;;;;5093371;28;20048;-76
2022/05/10 01:58:23;;;;;;;19.40;7.13;;;12.60;99.90;;;;;;5085091;28;20543;-77
2022/05/10 02:01:01;;;;;;;16.67;6.30;;;12.60;99.90;;;;;;5079107;28;20131;-76
2022/05/10 02:03:51;;;;;;;22.88;7.03;;;12.60;99.90;;;;;;5092402;28;20390;-76
2022/05/10 02:06:35;;;;;;;16.05;6.28;;;12.60;99.90;;;;;;5093644;28;20028;-76
2022/05/10 02:09:15;;;;;;;18.10;6.47;;;12.60;99.90;;;;;;5092325;28;20039;-76
2022/05/10 02:12:00;;;;;;;21.50;7.00;;;12.60;99.90;;;;;;5092748;28;20031;-76
2022/05/10 02:14:35;;;;;;;13.20;6.00;;;12.60;99.90;;;;;;5079992;28;20053;-76
2022/05/10 02:17:15;;;;;;;17.55;6.40;;;12.60;99.90;;;;;;5088860;28;20035;-76
2022/05/10 02:19:53;;;;;;;13.38;6.10;;;12.60;99.90;;;;;;5076593;28;20065;-76
2022/05/10 02:22:24;;;;;;;17.38;6.00;;;12.90;99.90;;;;;;5073421;28;20040;-76
2022/05/10 02:24:59;;;;;;;21.20;6.68;;;12.70;99.90;;;;;;5099423;28;20040;-77
2022/05/10 02:27:42;;;;;;;16.97;6.40;;;12.60;99.90;;;;;;5076169;28;20085;-76
2022/05/10 02:30:15;;;;;;;12.90;5.88;;;12.60;99.90;;;;;;5092504;28;20675;-77
2022/05/10 02:33:08;;;;;;;23.23;6.43;;;12.60;99.90;;;;;;5098271;28;20081;-76
2022/05/10 02:35:50;;;;;;;14.75;6.20;;;12.60;99.90;;;;;;5073631;28;20051;-76
2022/05/10 02:38:19;;;;;;;19.45;6.40;;;12.60;99.90;;;;;;5093432;28;20411;-77
2022/05/10 02:40:46;;;;;;;16.85;7.00;;;12.50;99.90;;;;;;5079767;28;20844;-76
2022/05/10 02:43:15;;;;;;;14.70;6.47;;;12.50;99.90;;;;;;5083378;28;20044;-77
2022/05/10 02:45:42;;;;;;;14.52;5.95;;;12.50;99.90;;;;;;5085880;28;20036;-76
2022/05/10 02:48:21;;;;;;;14.65;6.50;;;12.50;99.90;;;;;;5095868;28;20088;-76
2022/05/10 02:50:46;;;;;;;19.00;6.35;;;12.40;99.90;;;;;;5105488;28;20122;-76
2022/05/10 02:53:15;;;;;;;16.67;6.28;;;12.50;99.90;;;;;;5090515;28;20075;-74
2022/05/10 02:55:43;;;;;;;17.67;6.47;;;12.50;99.90;;;;;;5106229;28;20031;-75
2022/05/10 02:58:17;;;;;;;14.45;6.38;;;12.60;99.90;;;;;;5076769;28;20032;-77
2022/05/10 03:00:44;;;;;;;17.42;6.95;;;12.50;99.90;;;;;;5077163;28;20064;-77
2022/05/10 03:03:15;;;;;;;15.43;6.25;;;12.50;99.90;;;;;;5077134;28;21696;-77
2022/05/10 03:05:41;;;;;;;22.65;6.78;;;12.40;99.90;;;;;;5075867;28;20055;-77
2022/05/10 03:08:06;;;;;;;20.02;7.15;;;12.50;99.90;;;;;;5077405;28;20055;-76
2022/05/10 03:10:32;;;;;;;19.60;7.10;;;12.50;99.90;;;;;;5074445;28;20104;-77
2022/05/10 03:13:01;;;;;;;12.43;6.53;;;12.50;99.90;;;;;;5099263;28;20084;-77
2022/05/10 03:15:27;;;;;;;19.65;6.93;;;12.50;99.90;;;;;;5098326;28;20079;-76
2022/05/10 03:17:53;;;;;;;18.95;6.57;;;12.50;99.90;;;;;;5082826;28;20063;-77
2022/05/10 03:20:19;;;;;;;17.25;6.25;;;12.50;99.90;;;;;;5073469;28;20063;-76
2022/05/10 03:22:44;;;;;;;19.90;7.13;;;12.50;99.90;;;;;;5096248;28;20052;-77
2022/05/10 03:25:10;;;;;;;14.73;6.40;;;12.50;99.90;;;;;;5081875;28;20036;-77
2022/05/10 03:27:37;;;;;;;13.88;6.38;;;12.50;99.90;;;;;;5094544;28;20039;-76
2022/05/10 03:30:05;;;;;;;15.15;6.50;;;12.50;99.90;;;;;;5081321;28;20067;-77
2022/05/10 03:32:31;;;;;;;14.68;6.85;;;12.50;99.90;;;;;;5072038;28;20035;-76
2022/05/10 03:34:58;;;;;;;15.68;6.18;;;12.50;99.90;;;;;;5098759;28;20028;-76
2022/05/10 03:37:29;;;;;;;15.23;6.70;;;12.60;99.90;;;;;;5077432;28;20084;-77
2022/05/10 03:39:56;;;;;;;16.67;7.30;;;12.50;99.90;;;;;;5078330;28;20157;-76
2022/05/10 03:42:22;;;;;;;18.77;6.82;;;12.50;99.90;;;;;;5075152;28;20040;-76
2022/05/10 03:44:50;;;;;;;15.70;6.90;;;12.50;99.90;;;;;;5096622;28;20121;-76
2022/05/10 03:47:17;;;;;;;19.38;7.53;;;12.60;99.90;;;;;;5097732;28;20046;-76
2022/05/10 03:49:45;;;;;;;20.17;7.38;;;12.60;99.90;;;;;;5096033;28;20067;-77
2022/05/10 03:52:12;;;;;;;20.38;7.38;;;12.60;99.90;;;;;;5071251;28;20036;-76
2022/05/10 03:54:38;;;;;;;12.73;6.88;;;12.70;99.90;;;;;;5097121;28;20087;-76
2022/05/10 03:57:05;;;;;;;13.30;7.05;;;12.70;99.90;;;;;;5074160;28;20067;-76
2022/05/10 03:59:30;;;;;;;20.13;8.13;;;12.60;99.90;;;;;;5074425;28;20070;-76
2022/05/10 04:01:57;;;;;;;20.05;7.70;;;12.70;99.90;;;;;;5094440;28;20462;-76
2022/05/10 04:04:22;;;;;;;18.45;7.28;;;12.70;99.90;;;;;;5102036;28;20082;-76
2022/05/10 04:06:48;;;;;;;18.35;8.15;;;12.80;99.90;;;;;;5082742;28;20068;-77
2022/05/10 04:09:15;;;;;;;15.52;7.18;;;12.80;99.90;;;;;;5074392;28;20071;-76
2022/05/10 04:11:44;;;;;;;20.02;7.82;;;12.80;99.90;;;;;;5098537;28;20483;-76
2022/05/10 04:14:11;;;;;;;18.75;8.48;;;12.80;99.90;;;;;;5099487;28;20451;-77
2022/05/10 04:16:37;;;;;;;17.02;7.80;;;12.80;99.90;;;;;;5098929;28;20059;-76
2022/05/10 04:19:03;;;;;;;22.92;8.73;;;12.80;99.90;;;;;;5085308;28;20067;-75
2022/05/10 04:21:28;;;;;;;14.88;7.50;;;12.90;99.90;;;;;;5089963;28;20091;-75
2022/05/10 04:23:54;;;;;;;19.63;8.02;;;12.90;99.90;;;;;;5103618;28;20048;-76
2022/05/10 04:26:20;;;;;;;20.45;7.88;;;12.90;99.90;;;;;;5093288;28;20183;-76
2022/05/10 04:28:46;;;;;;;22.35;7.60;;;12.90;99.90;;;;;;5090946;28;20043;-76
2022/05/10 04:31:12;;;;;;;17.60;8.07;;;13.00;99.90;;;;;;5074746;28;20028;-76
2022/05/10 04:33:39;;;;;;;15.40;7.75;;;12.90;99.90;;;;;;5066442;28;20036;-77
2022/05/10 04:36:05;;;;;;;19.92;8.45;;;13.00;99.90;;;;;;5073223;28;20058;-76
2022/05/10 04:38:31;;;;;;;15.30;8.15;;;12.90;99.90;;;;;;5090534;28;20051;-76
2022/05/10 04:43:42;;;;;;;13.40;7.78;;;13.00;99.90;;;;;;5093046;28;20154;-76
2022/05/10 04:46:08;;;;;;;5.75;3.42;;;13.10;99.90;;;;;;5076243;28;20107;-73
2022/05/10 04:48:33;;;;;;;17.50;7.80;;;13.50;99.90;;;;;;5088028;28;20046;-77
2022/05/10 04:51:00;;;;;;;14.77;7.38;;;13.50;99.90;;;;;;5073968;28;20401;-77
2022/05/10 04:53:26;;;;;;;16.50;8.45;;;13.50;99.90;;;;;;5087732;28;20052;-77
2022/05/10 04:55:52;;;;;;;25.80;8.82;;;13.50;99.90;;;;;;5087591;28;20051;-77
2022/05/10 04:58:17;;;;;;;23.33;8.48;;;13.50;99.90;;;;;;5075292;28;20040;-77
2022/05/10 05:00:43;;;;;;;19.27;8.15;;;13.40;99.90;;;;;;5092809;28;20089;-77
2022/05/10 05:03:09;;;;;;;19.67;8.75;;;13.40;99.90;;;;;;5091034;28;20368;-77
2022/05/10 05:05:34;;;;;;;18.98;8.95;;;13.40;99.90;;;;;;5072635;28;20045;-77
2022/05/10 05:08:00;;;;;;;20.15;8.50;;;13.40;99.90;;;;;;5071512;28;20063;-77
2022/05/10 05:10:26;;;;;;;17.98;8.88;;;13.50;99.90;;;;;;5078457;28;20073;-77
2022/05/10 05:12:52;;;;;;;20.77;8.60;;;13.50;99.90;;;;;;5086518;28;20051;-77
2022/05/10 05:15:18;;;;;;;20.98;9.25;;;13.60;99.90;;;;;;5092163;28;20063;-77
2022/05/10 05:17:44;;;;;;;20.80;9.00;;;13.60;99.90;;;;;;5090381;28;20055;-77
2022/05/10 05:20:10;;;;;;;22.88;9.07;;;13.60;99.90;;;;;;5074407;28;20040;-77
2022/05/10 05:22:37;;;;;;;21.90;9.18;;;13.60;99.90;;;;;;5091193;28;20135;-78
2022/05/10 05:25:04;;;;;;;19.77;9.43;;;13.70;99.90;;;;;;5093679;28;20038;-79
2022/05/10 05:27:30;;;;;;;20.65;9.23;;;13.70;99.90;;;;;;5087325;28;20044;-77
2022/05/10 05:29:56;;;;;;;18.20;9.48;;;13.80;99.90;;;;;;5085332;28;20054;-77
2022/05/10 05:32:27;;;;;;;20.10;8.98;;;13.80;99.90;;;;;;5089682;28;20039;-77
2022/05/10 05:34:53;;;;;;;21.27;9.25;;;14.00;99.90;;;;;;5084072;28;20040;-77
2022/05/10 05:37:34;;;;;;;17.15;9.27;;;14.00;99.90;;;;;;5090817;28;20063;-76
2022/05/10 05:40:06;;;;;;;18.63;9.90;;;14.00;99.90;;;;;;5073621;28;20052;-76
2022/05/10 05:42:32;;;;;;;18.73;9.63;;;14.10;99.90;;;;;;5099968;28;20471;-75
2022/05/10 05:44:58;;;;;;;18.27;9.70;;;14.20;99.90;;;;;;5086357;28;20051;-74
2022/05/10 05:47:25;;;;;;;19.33;9.23;;;14.20;99.90;;;;;;5082482;28;20077;-74
2022/05/10 05:49:50;;;;;;;18.42;9.18;;;14.30;99.90;;;;;;5099682;28;20142;-74
2022/05/10 05:52:20;;;;;;;24.95;9.88;;;14.40;99.90;;;;;;5068355;28;20128;-75
2022/05/10 05:54:46;;;;;;;22.85;9.73;;;14.40;99.90;;;;;;5086470;28;20087;-77
2022/05/10 05:57:15;;;;;;;20.50;9.85;;;14.50;99.90;;;;;;5074093;28;20058;-76
2022/05/10 05:59:40;;;;;;;15.55;9.48;;;14.50;99.90;;;;;;5088903;28;20072;-77
2022/05/10 06:02:18;;;;;;;17.38;9.07;;;14.60;99.90;;;;;;5092472;28;20375;-76
2022/05/10 06:04:43;;;;;;;19.30;9.52;;;14.70;99.90;;;;;;5095576;28;20044;-79
2022/05/10 06:07:15;;;;;;;21.65;10.05;;;14.80;99.90;;;;;;5072662;28;20355;-77
2022/05/10 06:09:41;;;;;;;18.55;9.55;;;14.90;99.90;;;;;;5096520;28;20151;-77
2022/05/10 06:12:09;;;;;;;20.05;9.10;;;15.10;99.90;;;;;;5096930;28;20502;-76
2022/05/10 06:14:35;;;;;;;19.77;9.57;;;15.20;99.90;;;;;;5097285;28;20044;-77
2022/05/10 06:17:02;;;;;;;17.35;9.27;;;15.30;99.90;;;;;;5081306;28;20127;-77
2022/05/10 06:19:28;;;;;;;16.50;9.32;;;15.50;99.90;;;;;;5092855;28;20059;-76
2022/05/10 06:21:55;;;;;;;16.27;9.15;;;15.70;99.90;;;;;;5091251;28;20047;-76
2022/05/10 06:24:25;;;;;;;13.77;8.65;;;15.80;99.90;;;;;;5101371;28;20056;-76
2022/05/10 06:26:51;;;;;;;18.05;9.15;;;16.00;99.90;;;;;;5086331;28;20151;-76
2022/05/10 06:29:17;;;;;;;16.58;8.77;;;16.20;99.90;;;;;;5084877;28;20056;-77
2022/05/10 06:31:47;;;;;;;16.85;8.48;;;16.40;99.90;;;;;;5089334;28;20061;-78
2022/05/10 06:34:13;;;;;;;17.00;8.55;;;16.60;99.90;;;;;;5094673;28;20155;-79
2022/05/10 06:36:39;;;;;;;16.50;8.13;;;16.70;99.90;;;;;;5084798;28;20040;-78
2022/05/10 06:39:06;;;;;;;18.17;7.53;;;17.00;99.90;;;;;;5082411;28;20043;-77
2022/05/10 06:41:32;;;;;;;16.50;7.75;;;17.20;99.90;;;;;;5087277;28;20039;-78
2022/05/10 06:43:59;;;;;;;13.50;7.53;;;17.40;99.90;;;;;;5090606;28;20060;-79
2022/05/10 06:46:26;;;;;;;10.32;6.50;;;17.60;99.90;;;;;;5076655;28;20066;-77
2022/05/10 06:48:51;;;;;;;9.45;6.75;;;17.80;99.90;;;;;;5074144;28;20052;-78
2022/05/10 06:51:21;;;;;;;12.90;6.70;;;18.00;99.90;;;;;;5067928;28;20079;-79
2022/05/10 06:53:47;;;;;;;11.70;6.90;;;18.10;99.90;;;;;;5089160;28;20177;-80
2022/05/10 06:56:13;;;;;;;14.88;6.60;;;18.30;99.90;;;;;;5093703;28;20036;-78
2022/05/10 06:58:40;;;;;;;14.35;6.40;;;18.40;99.90;;;;;;5074239;28;20442;-79
2022/05/10 07:01:11;;;;;;;17.23;6.28;;;18.60;99.90;;;;;;5073803;28;20072;-78
2022/05/10 07:03:39;;;;;;;9.82;6.00;;;18.70;99.90;;;;;;5086623;28;20487;-78
2022/05/10 07:06:08;;;;;;;11.25;6.03;;;18.70;99.90;;;;;;5089277;28;20423;-80
2022/05/10 07:08:34;;;;;;;12.02;6.00;;;18.90;99.90;;;;;;5080989;28;20050;-78
2022/05/10 07:11:00;;;;;;;14.15;5.80;;;19.00;99.90;;;;;;5108062;28;20192;-79
2022/05/10 07:13:28;;;;;;;13.48;5.60;;;19.00;99.90;;;;;;5111532;28;20031;-77
2022/05/10 07:15:53;;;;;;;14.13;4.97;;;19.20;99.90;;;;;;5096269;28;20044;-77
2022/05/10 07:18:19;;;;;;;8.00;5.63;;;19.30;99.90;;;;;;5086040;28;20050;-78
2022/05/10 07:20:47;;;;;;;10.65;5.32;;;19.40;99.90;;;;;;5085009;28;20138;-79
2022/05/10 07:23:30;;;;;;;13.85;5.07;;;19.50;99.90;;;;;;5067015;28;20139;-78
2022/05/10 07:25:56;;;;;;;10.85;4.93;;;19.60;99.90;;;;;;5090326;28;20092;-78
2022/05/10 07:28:22;;;;;;;12.60;5.65;;;19.70;99.90;;;;;;5097032;28;20063;-77
2022/05/10 07:30:48;;;;;;;15.38;5.30;;;19.80;99.90;;;;;;5096173;28;20075;-78
2022/05/10 07:33:18;;;;;;;13.70;6.13;;;19.90;99.90;;;;;;5086097;28;20059;-78
2022/05/10 07:38:28;;;;;;;13.32;5.93;;;20.20;99.90;;;;;;5091604;28;20402;-78
2022/05/10 07:40:54;;;;;;;13.00;5.97;;;20.40;99.90;;;;;;5099085;28;20056;-78
2022/05/10 07:43:20;;;;;;;16.67;6.00;;;20.50;99.90;;;;;;5086867;28;20051;-77
2022/05/10 07:45:51;;;;;;;14.40;5.32;;;20.60;99.90;;;;;;5094417;28;20467;-77
2022/05/10 07:48:17;;;;;;;12.32;6.15;;;20.60;99.90;;;;;;5086282;28;20414;-78
2022/05/10 07:50:44;;;;;;;12.95;5.75;;;20.70;99.90;;;;;;5092909;28;20152;-77
2022/05/10 07:53:11;;;;;;;17.83;5.40;;;20.70;99.90;;;;;;5092229;28;20048;-78
2022/05/10 07:55:37;;;;;;;13.70;5.63;;;20.70;99.90;;;;;;5077322;28;20176;-77
2022/05/10 07:58:07;;;;;;;11.30;4.93;;;20.70;99.90;;;;;;5100902;28;20139;-77
2022/05/10 08:00:37;;;;;;;14.80;5.32;;;20.70;99.90;;;;;;5093333;28;20054;-77
2022/05/10 08:03:13;;;;;;;16.40;5.75;;;20.90;99.90;;;;;;5105646;28;20048;-77
2022/05/10 08:05:39;;;;;;;13.57;5.75;;;21.00;99.90;;;;;;5100856;28;20058;-78
2022/05/10 08:08:05;;;;;;;11.52;4.78;;;21.00;99.90;;;;;;5091328;28;20052;-78
2022/05/10 08:10:31;;;;;;;12.00;4.50;;;21.00;99.90;;;;;;5089006;28;20048;-78
2022/05/10 08:12:57;;;;;;;11.32;4.57;;;21.20;99.90;;;;;;5112432;28;20043;-77
2022/05/10 08:15:23;;;;;;;12.25;4.65;;;21.20;99.90;;;;;;5112264;28;20130;-78
2022/05/10 08:17:48;;;;;;;13.98;4.53;;;21.30;99.90;;;;;;5076361;28;20550;-77
2022/05/10 08:20:14;;;;;;;14.63;4.18;;;21.40;99.90;;;;;;5099962;28;20562;-78
2022/05/10 08:22:41;;;;;;;12.63;4.30;;;21.40;99.90;;;;;;5085239;28;20047;-77
2022/05/10 08:25:07;;;;;;;10.43;4.15;;;21.30;99.90;;;;;;5075405;28;20081;-77
2022/05/10 08:27:33;;;;;;;11.23;4.22;;;21.30;99.90;;;;;;5078053;28;20048;-77
2022/05/10 08:29:58;;;;;;;12.23;4.10;;;21.30;99.90;;;;;;5106305;28;20044;-77
2022/05/10 08:32:24;;;;;;;12.02;3.80;;;21.40;99.90;;;;;;5075891;28;20051;-78
2022/05/10 08:34:50;;;;;;;9.80;4.00;;;21.50;99.90;;;;;;5092660;28;20052;-77
2022/05/10 08:37:15;;;;;;;11.23;3.80;;;21.70;99.90;;;;;;5091818;28;20131;-77
2022/05/10 08:39:41;;;;;;;13.73;3.72;;;21.60;99.90;;;;;;5088305;28;20458;-74
2022/05/10 08:42:25;;;;;;;8.30;3.70;;;21.90;99.90;;;;;;5118178;28;20042;-74
2022/05/10 08:45:05;;;;;;;8.00;3.25;;;22.00;99.90;;;;;;5087963;28;20056;-77
2022/05/10 08:47:32;;;;;;;7.45;3.33;;;22.20;99.90;;;;;;5080292;28;20043;-77
2022/05/10 08:50:03;;;;;;;11.80;3.30;;;22.30;99.90;;;;;;5101874;28;20151;-77
2022/05/10 08:52:41;;;;;;;9.93;3.45;;;22.30;99.90;;;;;;5111471;28;20070;-77
2022/05/10 08:55:09;;;;;;;8.73;3.20;;;22.20;99.90;;;;;;5087115;28;20045;-78
2022/05/10 08:57:43;;;;;;;13.38;3.35;;;22.20;99.90;;;;;;5091570;28;20067;-78
2022/05/10 09:00:11;;;;;;;;;;;22.30;99.90;;;;;;5075738;28;20075;-77
2022/05/10 09:02:42;;;;;;;11.43;3.60;;;22.30;99.90;;;;;;5091776;28;20355;-78
2022/05/10 09:05:28;;;;;;;6.93;3.30;;;22.30;99.90;;;;;;5084221;28;20055;-78
2022/05/10 09:08:11;;;;;;;8.35;3.10;;;22.40;99.90;;;;;;5110670;28;20348;-77
2022/05/10 09:11:00;;;;;;;8.70;3.08;;;22.60;99.90;;;;;;5080383;28;20052;-77
2022/05/10 09:13:26;;;;;;;7.75;2.88;;;22.50;99.90;;;;;;5089289;28;20221;-79
2022/05/10 09:15:56;;;;;;;13.63;3.38;;;22.60;99.90;;;;;;5085049;28;20060;-77
2022/05/10 09:18:28;;;;;;;7.50;2.80;;;22.60;99.90;;;;;;5107014;28;20052;-78
2022/05/10 09:21:16;;;;;;;6.90;3.20;;;22.50;99.90;;;;;;5099537;28;20134;-77
2022/05/10 09:24:19;;;;;;;9.18;3.20;;;22.60;99.90;;;;;;5073820;28;20036;-77
2022/05/10 09:26:48;;;;;;;8.00;3.28;;;22.60;99.90;;;;;;5090354;28;20052;-76
2022/05/10 09:29:26;;;;;;;11.52;3.30;;;22.70;99.90;;;;;;5078023;28;20534;-77
2022/05/10 09:34:49;;;;;;;7.55;3.47;;;23.00;99.90;;;;;;5093116;28;20094;-78
2022/05/10 09:37:24;;;;;;;9.45;3.20;;;23.00;99.90;;;;;;5096147;28;20082;-78
2022/05/10 09:39:56;;;;;;;10.48;3.08;;;23.20;99.90;;;;;;5073984;28;20081;-78
2022/05/10 09:42:33;;;;;;;11.85;4.05;;;23.10;99.70;;;;;;5104043;28;20059;-79
2022/05/10 09:45:02;;;;;;;10.70;4.07;;;23.30;99.90;;;;;;5083906;28;20048;-79
2022/05/10 09:47:29;;;;;;;10.77;3.67;;;23.30;99.90;;;;;;5080573;28;20470;-79
2022/05/10 09:50:17;;;;;;;8.40;3.40;;;23.40;99.70;;;;;;5098884;28;20052;-79
2022/05/10 09:52:44;;;;;;;11.75;4.13;;;23.70;99.10;;;;;;5109976;28;20051;-79
2022/05/10 09:55:25;;;;;;;7.97;3.60;;;23.80;99.10;;;;;;5094522;28;20042;-79
2022/05/10 09:57:51;;;;;;;10.07;4.10;;;23.80;99.20;;;;;;5098886;28;20055;-78
2022/05/10 10:00:17;;;;;;;11.38;4.35;;;23.60;99.00;;;;;;5091501;28;20513;-78
2022/05/10 10:02:43;;;;;;;14.80;4.60;;;23.40;99.20;;;;;;5091703;28;20067;-78
2022/05/10 10:05:23;;;;;;;11.57;4.43;;;23.20;99.50;;;;;;5091585;28;20166;-80
2022/05/10 10:07:54;;;;;;;13.60;4.45;;;23.00;99.30;;;;;;5104853;28;20086;-75
2022/05/10 10:10:30;;;;;;;8.20;4.10;;;23.10;99.90;;;;;;5105815;28;20052;-75
2022/05/10 10:12:57;;;;;;;13.65;4.70;;;23.20;99.90;;;;;;5089829;28;20073;-78
2022/05/10 10:15:43;;;;;;;20.20;4.80;;;23.20;99.90;;;;;;5090058;28;20104;-78
2022/05/10 10:18:11;;;;;;;11.90;4.80;;;23.40;99.80;;;;;;5075438;28;20056;-78
2022/05/10 10:20:49;;;;;;;10.00;4.88;;;23.50;99.90;;;;;;5103802;28;20039;-78
2022/05/10 10:23:38;;;;;;;18.35;5.10;;;23.70;99.90;;;;;;5109288;28;20081;-79
2022/05/10 10:26:13;;;;;;;16.35;5.55;;;23.90;99.70;;;;;;5110658;28;20650;-79
2022/05/10 10:28:50;;;;;;;13.93;5.43;;;24.20;99.80;;;;;;5094739;28;20123;-79
2022/05/10 10:31:36;;;;;;;10.88;5.20;;;24.30;99.50;;;;;;5073716;28;20075;-79
2022/05/10 10:34:12;;;;;;;15.80;5.32;;;24.10;99.50;;;;;;5074126;28;20050;-79
2022/05/10 10:36:50;;;;;;;10.32;4.97;;;24.10;99.60;;;;;;5090232;28;20044;-79
2022/05/10 10:39:34;;;;;;;12.48;5.18;;;24.10;99.60;;;;;;5092680;28;20043;-79
2022/05/10 10:42:27;;;;;;;12.80;5.38;;;24.10;99.30;;;;;;5073842;28;20068;-78
2022/05/10 10:44:57;;;;;;;14.43;5.55;;;24.10;99.30;;;;;;5110327;28;20140;-79
2022/05/10 10:47:38;;;;;;;10.77;5.32;;;24.00;99.60;;;;;;5101566;28;20047;-79
2022/05/10 10:50:13;;;;;;;11.52;5.30;;;23.90;99.90;;;;;;5073815;28;20067;-78
2022/05/10 10:52:39;;;;;;;9.63;5.13;;;23.70;99.90;;;;;;5072739;28;20044;-79
2022/05/10 10:55:06;;;;;;;16.50;5.43;;;23.50;99.90;;;;;;5090117;28;20483;-79
2022/05/10 10:58:11;;;;;;;10.93;5.30;;;23.50;99.90;;;;;;5073363;28;20086;-79
2022/05/10 11:00:51;;;;;;;11.00;5.10;;;23.40;99.90;;;;;;5089971;28;20088;-79
2022/05/10 11:03:42;;;;;;;13.40;4.70;;;23.30;99.90;;;;;;5099454;28;20427;-80
2022/05/10 11:06:11;;;;;;;8.82;5.30;;;23.10;99.90;;;;;;5114839;28;20126;-78
2022/05/10 11:08:46;;;;;;;11.70;4.90;;;22.80;99.90;;;;;;5105912;28;20086;-79
2022/05/10 11:11:50;;;;;;;8.98;4.00;;;22.50;99.90;;;;;;5093848;28;20117;-78
2022/05/10 11:14:37;;;;;;;8.70;3.60;;;22.30;99.90;;;;;;5089986;28;20459;-78
2022/05/10 11:17:24;;;;;;;8.35;3.00;;;22.30;99.90;;;;;;5093281;28;20048;-78
2022/05/10 11:20:25;;;;;;;10.38;2.80;;;22.30;99.90;;;;;;5095881;28;20393;-79
2022/05/10 11:23:10;;;;;;;7.07;3.10;;;22.40;99.90;;;;;;5075948;28;20447;-79
2022/05/10 11:25:47;;;;;;;11.60;3.17;;;22.50;99.90;;;;;;5093728;28;20052;-78
2022/05/10 11:28:19;;;;;;;12.30;3.45;;;22.70;99.90;;;;;;5077492;28;20088;-79
2022/05/10 11:31:15;;;;;;;9.18;2.95;;;23.00;99.90;;;;;;5096284;28;20074;-78
2022/05/10 11:33:46;;;;;;;6.80;3.28;;;23.20;99.90;;;;;;5094413;28;20069;-77
2022/05/10 11:36:23;;;;;;;7.95;3.10;;;23.20;99.80;;;;;;5095845;28;20499;-76
2022/05/10 11:39:06;;;;;;;8.88;3.15;;;23.20;99.90;;;;;;5104416;28;20048;-78
2022/05/10 11:42:03;;;;;;;10.85;3.95;;;23.30;99.90;;;;;;5093430;28;20136;-78
2022/05/10 11:44:38;;;;;;;13.23;3.72;;;23.30;99.90;;;;;;5098541;28;20040;-78
2022/05/10 11:47:20;;;;;;;8.48;4.20;;;23.20;99.80;;;;;;5075516;28;20405;-78
2022/05/10 11:49:52;;;;;;;8.25;4.05;;;23.10;99.90;;;;;;5086723;28;20058;-78
2022/05/10 11:52:36;;;;;;;13.60;4.53;;;23.00;99.90;;;;;;5099293;28;20144;-78
2022/05/10 11:55:37;;;;;;;16.97;4.80;;;23.00;99.90;;;;;;5090748;28;20056;-81
2022/05/10 11:58:10;;;;;;;11.68;4.55;;;23.30;99.90;;;;;;5079564;28;20047;-76
2022/05/10 12:00:40;;;;;;;13.23;5.30;;;23.60;99.90;;;;;;5064294;28;20060;-78
2022/05/10 12:03:29;;;;;;;18.40;5.72;;;23.90;99.90;;;;;;5064915;28;20048;-78
2022/05/10 12:06:23;;;;;;;9.07;5.00;;;24.30;99.80;;;;;;5068073;28;20055;-77
2022/05/10 12:08:53;;;;;;;15.88;5.88;;;24.40;99.80;;;;;;5067719;28;21025;-78
2022/05/10 12:11:28;;;;;;;16.23;5.78;;;24.50;99.60;;;;;;5064666;28;20067;-74
2022/05/10 12:22:53;;;;;;;18.27;6.38;;;24.40;99.90;;;;;;5054813;28;20188;-79
2022/05/10 12:25:53;;;;;;;20.23;5.70;;;24.20;99.90;;;;;;5058920;28;20052;-76
2022/05/10 12:29:00;;;;;;;11.80;4.93;;;24.20;99.90;;;;;;5064110;28;20045;-80
2022/05/10 12:31:35;;;;;;;13.50;4.93;;;24.10;99.90;;;;;;4970176;28;20089;-79
2022/05/10 12:34:09;;;;;;;13.60;4.07;;;23.90;99.90;;;;;;4969376;28;20384;-76
2022/05/10 12:36:40;;;;;;;8.73;4.25;;;24.00;99.90;;;;;;5001085;28;20105;-79
2022/05/10 12:39:22;;;;;;;10.63;4.18;;;24.10;99.90;;;;;;4980605;28;20475;-82
2022/05/10 12:42:05;;;;;;;12.45;4.30;;;23.80;99.90;;;;;;5001460;28;20136;-79
2022/05/10 12:44:42;;;;;;;10.68;4.47;;;23.60;99.90;;;;;;4995213;28;20046;-79
2022/05/10 12:47:24;;;;;;;16.23;3.60;;;23.60;99.90;;;;;;4980547;28;20099;-80
2022/05/10 12:50:27;;;;;;;11.63;3.35;;;23.60;99.90;;;;;;4997274;28;20052;-79
2022/05/10 12:52:53;;;;;;;24.50;3.28;;;23.50;99.50;;;;;;5015154;28;20049;-79
2022/05/10 12:55:23;;;;;;;15.73;3.25;;;23.20;99.00;;;;;;4985715;28;20452;-78
2022/05/10 12:58:02;;;;;;;9.13;2.70;;;23.20;99.20;;;;;;5002289;28;20041;-80
2022/05/10 13:00:44;;;;;;;11.13;2.30;;;23.00;98.40;;;;;;5011512;28;20049;-77
2022/05/10 13:03:15;;;;;;;11.43;2.38;;;23.00;97.50;;;;;;5027556;28;20179;-75
2022/05/10 13:05:52;;;;;;;9.27;2.40;;;23.00;97.20;;;;;;5003291;28;20053;-78
2022/05/10 13:08:52;;;;;;;11.80;2.30;;;23.00;96.90;;;;;;5056623;28;20052;-78
2022/05/10 13:11:21;;;;;;;7.68;2.38;;;22.90;95.90;;;;;;5101465;28;20086;-79
2022/05/10 13:13:49;;;;;;;9.65;2.42;;;22.80;96.50;;;;;;5080686;28;20048;-79
2022/05/10 13:16:20;;;;;;;11.00;2.28;;;22.80;96.60;;;;;;5077574;28;20052;-79
2022/05/10 13:18:49;;;;;;;9.93;2.53;;;22.80;96.60;;;;;;5090762;28;20083;-78
2022/05/10 13:21:26;;;;;;;10.85;2.53;;;22.60;96.30;;;;;;5094479;28;20098;-76
2022/05/10 13:23:54;;;;;;;15.98;2.08;;;22.70;96.50;;;;;;5092696;28;20513;-76
2022/05/10 13:26:22;;;;;;;10.25;2.00;;;22.60;95.80;;;;;;5092987;28;20433;-77